createdAt,value
2022-11-20T00:04:27.811Z,6.47
2022-11-20T00:09:29.791Z,6.31
2022-11-20T00:14:31.688Z,5.61
2022-11-20T00:19:33.939Z,5.99
2022-11-20T00:24:41.681Z,5.15
2022-11-20T00:29:44.789Z,5.03
2022-11-20T00:34:46.871Z,5.70
2022-11-20T00:39:48.777Z,5.92
2022-11-20T00:44:50.889Z,6.18
2022-11-20T00:49:52.889Z,5.99
2022-11-20T00:54:55.068Z,6.65
2022-11-20T00:59:56.940Z,7.03
2022-11-20T01:05:00.243Z,7.59
2022-11-20T01:10:02.193Z,7.51
2022-11-20T01:15:04.555Z,8.07
2022-11-20T01:20:07.096Z,8.06
2022-11-20T01:25:09.228Z,8.24
2022-11-20T01:30:11.892Z,9.88
2022-11-20T01:35:13.895Z,10.06
2022-11-20T01:40:16.033Z,9.64
2022-11-20T01:45:55.534Z,9.75
2022-11-20T01:50:59.076Z,10.64
2022-11-20T01:56:03.790Z,11.85
2022-11-20T02:01:05.967Z,11.39
2022-11-20T02:06:17.619Z,11.04
2022-11-20T02:11:20.224Z,11.65
2022-11-20T02:16:36.209Z,11.77
2022-11-20T02:21:40.516Z,11.43
2022-11-20T02:27:10.711Z,11.65
2022-11-20T02:32:36.314Z,11.81
2022-11-20T02:37:41.227Z,11.27
2022-11-20T02:42:43.132Z,11.49
2022-11-20T02:47:45.117Z,10.69
2022-11-20T02:52:47.016Z,11.40
2022-11-20T02:57:49.560Z,11.78
2022-11-20T03:02:51.477Z,12.49
2022-11-20T03:07:53.421Z,12.14
2022-11-20T03:12:56.550Z,13.48
2022-11-20T03:17:58.631Z,12.63
2022-11-20T03:23:00.888Z,12.81
2022-11-20T03:28:02.912Z,13.25
2022-11-20T03:33:04.787Z,13.25
2022-11-20T03:38:06.709Z,12.46
2022-11-20T03:43:10.653Z,12.55
2022-11-20T03:48:12.543Z,12.52
2022-11-20T03:53:16.052Z,13.00
2022-11-20T03:58:19.134Z,11.62
2022-11-20T04:03:21.412Z,12.34
2022-11-20T04:08:23.496Z,12.17
2022-11-20T04:13:25.373Z,13.16
2022-11-20T04:18:27.363Z,12.75
2022-11-20T04:23:29.610Z,12.07
2022-11-20T04:28:31.622Z,13.00
2022-11-20T04:33:34.645Z,12.46
2022-11-20T04:38:36.818Z,11.49
2022-11-20T04:43:38.728Z,12.59
2022-11-20T04:48:40.616Z,12.28
2022-11-20T04:53:42.898Z,12.68
2022-11-20T04:58:45.547Z,12.39
2022-11-20T05:03:48.170Z,12.36
2022-11-20T05:08:50.311Z,12.38
2022-11-20T05:13:53.037Z,12.33
2022-11-20T05:18:56.282Z,11.69
2022-11-20T05:23:58.154Z,11.66
2022-11-20T05:29:00.049Z,11.26
2022-11-20T05:34:02.126Z,10.11
2022-11-20T05:39:04.824Z,10.16
2022-11-20T05:44:06.705Z,10.83
2022-11-20T05:49:08.592Z,9.83
2022-11-20T05:54:10.477Z,9.43
2022-11-20T05:59:12.543Z,9.29
2022-11-20T06:04:14.470Z,9.43
2022-11-20T06:09:16.418Z,8.69
2022-11-20T06:14:18.288Z,8.97
2022-11-20T06:19:20.530Z,9.62
2022-11-20T06:24:22.561Z,9.36
2022-11-20T06:29:32.623Z,8.71
2022-11-20T06:34:35.754Z,8.02
2022-11-20T06:39:37.686Z,9.10
2022-11-20T06:44:39.598Z,9.40
2022-11-20T06:49:41.509Z,8.95
2022-11-20T06:54:43.760Z,9.51
2022-11-20T06:59:46.169Z,8.81
2022-11-20T07:04:48.024Z,8.46
2022-11-20T07:09:50.018Z,8.30
2022-11-20T07:14:52.092Z,7.95
2022-11-20T07:19:54.178Z,8.43
2022-11-20T07:24:56.124Z,7.93
2022-11-20T07:29:58.201Z,7.66
2022-11-20T07:35:00.104Z,9.40
2022-11-20T07:40:02.264Z,8.92
2022-11-20T07:45:04.765Z,8.88
2022-11-20T07:50:07.144Z,9.75
2022-11-20T07:55:10.646Z,8.88
2022-11-20T08:00:13.619Z,9.32
2022-11-20T08:05:15.722Z,9.34
2022-11-20T08:10:17.833Z,9.85
2022-11-20T08:15:19.749Z,10.68
2022-11-20T08:20:21.828Z,10.92
2022-11-20T08:25:23.758Z,10.88
2022-11-20T08:30:26.678Z,11.46
2022-11-20T08:35:28.583Z,11.93
2022-11-20T08:40:31.020Z,13.43
2022-11-20T08:45:35.070Z,12.51
2022-11-20T08:50:37.278Z,11.91
2022-11-20T08:55:40.829Z,14.53
2022-11-20T09:00:42.966Z,14.61
2022-11-20T09:05:44.893Z,15.26
2022-11-20T09:10:46.780Z,14.39
2022-11-20T09:15:48.944Z,15.18
2022-11-20T09:20:51.128Z,15.57
2022-11-20T09:25:53.772Z,15.39
2022-11-20T09:30:55.825Z,14.68
2022-11-20T09:35:57.653Z,15.74
2022-11-20T09:41:05.534Z,13.79
2022-11-20T09:46:18.176Z,14.93
2022-11-20T09:51:57.874Z,15.47
2022-11-20T09:57:14.261Z,14.67
2022-11-20T10:02:25.855Z,13.72
2022-11-20T10:07:36.742Z,14.04
2022-11-20T10:13:09.579Z,13.44
2022-11-20T10:18:43.580Z,14.20
2022-11-20T10:23:45.373Z,12.94
2022-11-20T10:29:08.677Z,12.64
2022-11-20T10:34:34.668Z,12.86
2022-11-20T10:39:45.616Z,11.88
2022-11-20T10:45:05.748Z,11.87
2022-11-20T10:50:21.935Z,12.50
2022-11-20T10:55:43.676Z,11.90
2022-11-20T11:00:46.092Z,11.57
2022-11-20T11:05:54.721Z,12.07
2022-11-20T11:11:00.231Z,12.07
2022-11-20T11:16:04.025Z,11.23
2022-11-20T11:21:06.415Z,10.17
2022-11-20T11:26:22.235Z,11.48
2022-11-20T11:31:29.581Z,10.60
2022-11-20T11:36:32.402Z,9.70
2022-11-20T11:41:38.007Z,9.66
2022-11-20T11:46:45.016Z,8.24
2022-11-20T11:52:08.976Z,7.11
2022-11-20T11:57:21.600Z,7.46
2022-11-20T12:02:37.031Z,6.89
2022-11-20T12:07:47.779Z,7.03
2022-11-20T12:12:56.024Z,6.96
2022-11-20T12:17:58.324Z,6.46
2022-11-20T12:23:23.187Z,5.41
2022-11-20T12:28:57.353Z,5.61
2022-11-20T12:34:18.125Z,5.19
2022-11-20T12:39:51.519Z,4.51
2022-11-20T12:45:24.727Z,5.09
2022-11-20T12:51:08.013Z,5.41
2022-11-20T12:56:21.414Z,9.10
2022-11-20T13:01:41.812Z,9.74
2022-11-20T13:06:45.168Z,11.58
2022-11-20T13:12:14.838Z,12.05
2022-11-20T13:17:31.369Z,12.88
2022-11-20T13:22:45.821Z,13.27
2022-11-20T13:27:49.471Z,14.11
2022-11-20T13:32:52.878Z,13.55
2022-11-20T13:38:10.175Z,13.45
2022-11-20T13:43:34.909Z,13.61
2022-11-20T13:48:42.983Z,14.62
2022-11-20T13:53:57.024Z,14.32
2022-11-20T13:59:20.737Z,15.06
2022-11-20T14:04:34.623Z,15.16
2022-11-20T14:09:36.621Z,14.49
2022-11-20T14:14:58.891Z,15.92
2022-11-20T14:20:15.784Z,17.35
2022-11-20T14:25:17.740Z,18.64
2022-11-20T14:30:25.663Z,19.09
2022-11-20T14:35:30.079Z,19.58
2022-11-20T14:40:37.146Z,19.72
2022-11-20T14:45:40.406Z,20.82
2022-11-20T14:50:42.283Z,21.32
2022-11-20T14:55:44.223Z,21.98
2022-11-20T15:00:58.053Z,22.13
2022-11-20T15:06:00.088Z,22.47
2022-11-20T15:11:02.772Z,22.99
2022-11-20T15:16:20.104Z,22.89
2022-11-20T15:21:22.292Z,24.27
2022-11-20T15:26:27.265Z,24.23
2022-11-20T15:31:29.383Z,23.48
2022-11-20T15:36:31.248Z,23.35
2022-11-20T15:41:33.460Z,22.96
2022-11-20T15:46:41.025Z,22.31
2022-11-20T15:51:47.237Z,21.31
2022-11-20T15:56:50.708Z,22.78
2022-11-20T16:01:52.668Z,22.40
2022-11-20T16:06:54.599Z,21.63
2022-11-20T16:12:00.059Z,21.86
2022-11-20T16:17:02.594Z,22.38
2022-11-20T16:22:04.816Z,20.79
2022-11-20T16:27:06.766Z,20.44
2022-11-20T16:32:09.620Z,19.49
2022-11-20T16:37:11.546Z,20.60
2022-11-20T16:42:13.660Z,19.57
2022-11-20T16:47:15.615Z,20.29
2022-11-20T16:52:17.744Z,20.50
2022-11-20T16:57:19.776Z,21.45
2022-11-20T17:02:21.700Z,21.60
2022-11-20T17:07:24.370Z,23.12
2022-11-20T17:12:26.247Z,23.46
2022-11-20T17:17:28.314Z,25.40
2022-11-20T17:22:31.575Z,26.96
2022-11-20T17:27:33.759Z,27.33
2022-11-20T17:32:35.781Z,27.04
2022-11-20T17:37:37.779Z,27.84
2022-11-20T17:42:40.289Z,27.31
2022-11-20T17:47:44.440Z,27.33
2022-11-20T17:52:46.444Z,27.67
2022-11-20T17:57:56.647Z,28.42
2022-11-20T18:02:59.111Z,30.97
2022-11-20T18:08:01.142Z,29.41
2022-11-20T18:13:03.260Z,31.51
2022-11-20T18:18:05.468Z,33.30
2022-11-20T18:23:07.398Z,33.38
2022-11-20T18:28:10.012Z,34.52
2022-11-20T18:33:12.050Z,33.23
2022-11-20T18:38:13.936Z,31.28
2022-11-20T18:43:34.552Z,30.53
2022-11-20T18:48:36.585Z,30.19
2022-11-20T18:53:40.907Z,27.10
2022-11-20T18:58:46.459Z,25.90
2022-11-20T19:03:48.380Z,23.69
2022-11-20T19:08:50.570Z,23.20
2022-11-20T19:13:52.860Z,22.21
2022-11-20T19:18:57.279Z,20.78
2022-11-20T19:24:02.792Z,19.67
2022-11-20T19:29:06.172Z,18.80
2022-11-20T19:34:08.695Z,18.45
2022-11-20T19:39:11.466Z,18.25
2022-11-20T19:44:15.804Z,17.50
2022-11-20T19:49:18.103Z,17.42
2022-11-20T19:54:20.086Z,18.89
2022-11-20T19:59:23.209Z,18.15
2022-11-20T20:04:25.513Z,18.26
2022-11-20T20:09:27.699Z,18.39
2022-11-20T20:14:29.808Z,19.26
2022-11-20T20:19:32.149Z,19.24
2022-11-20T20:24:34.119Z,18.38
2022-11-20T20:29:36.249Z,19.23
2022-11-20T20:34:38.120Z,18.85
2022-11-20T20:39:40.035Z,18.87
2022-11-20T20:45:01.048Z,19.58
2022-11-20T20:50:05.382Z,18.45
2022-11-20T20:55:08.036Z,18.44
2022-11-20T21:00:10.600Z,17.78
2022-11-20T21:05:13.044Z,17.61
2022-11-20T21:10:17.752Z,19.34
2022-11-20T21:15:21.823Z,20.68
2022-11-20T21:20:42.462Z,20.55
2022-11-20T21:25:44.920Z,22.16
2022-11-20T21:30:47.322Z,20.99
2022-11-20T21:35:49.177Z,19.94
2022-11-20T21:40:51.097Z,19.82
2022-11-20T21:45:53.102Z,21.38
2022-11-20T21:50:55.048Z,20.95
2022-11-20T21:55:57.953Z,20.92
2022-11-20T22:00:59.895Z,22.81
2022-11-20T22:06:01.848Z,21.99
2022-11-20T22:11:12.345Z,21.57
2022-11-20T22:16:14.810Z,21.94
2022-11-20T22:21:20.117Z,20.82
2022-11-20T22:26:27.311Z,21.15
2022-11-20T22:31:30.784Z,24.14
2022-11-20T22:36:32.839Z,24.41
2022-11-20T22:41:35.372Z,25.01
2022-11-20T22:46:38.244Z,25.10
2022-11-20T22:51:41.267Z,25.45
2022-11-20T22:56:43.183Z,26.80
2022-11-20T23:01:45.091Z,26.95
2022-11-20T23:06:47.077Z,25.85
2022-11-20T23:11:48.979Z,25.16
2022-11-20T23:16:50.996Z,24.33
2022-11-20T23:21:53.350Z,26.58
2022-11-20T23:26:55.447Z,27.33
2022-11-20T23:31:57.533Z,26.65
2022-11-20T23:37:01.276Z,25.28
2022-11-20T23:42:03.162Z,24.88
2022-11-20T23:47:05.140Z,24.36
2022-11-20T23:52:07.096Z,23.85
2022-11-20T23:57:08.963Z,23.82
